createdAt,value
2019-01-28T00:00:25.494Z,18.20
2019-01-28T00:01:25.516Z,17.40
2019-01-28T00:02:25.489Z,16.60
2019-01-28T00:03:25.469Z,15.20
2019-01-28T00:04:25.468Z,14.80
2019-01-28T00:05:25.447Z,16.10
2019-01-28T00:06:25.422Z,18.80
2019-01-28T00:07:25.435Z,17.90
2019-01-28T00:08:25.420Z,16.70
2019-01-28T00:09:25.420Z,16.80
2019-01-28T00:10:25.393Z,16.60
2019-01-28T00:11:25.375Z,15.40
2019-01-28T00:12:25.361Z,17.00
2019-01-28T00:13:25.355Z,17.00
2019-01-28T00:14:25.365Z,14.80
2019-01-28T00:15:25.331Z,15.90
2019-01-28T00:16:25.313Z,16.00
2019-01-28T00:17:25.314Z,15.80
2019-01-28T00:18:25.295Z,15.30
2019-01-28T00:19:25.298Z,15.20
2019-01-28T00:20:25.851Z,18.80
2019-01-28T00:21:25.269Z,17.10
2019-01-28T00:22:25.250Z,16.10
2019-01-28T00:23:25.264Z,17.40
2019-01-28T00:24:25.259Z,15.90
2019-01-28T00:25:25.229Z,16.70
2019-01-28T00:26:25.208Z,19.10
2019-01-28T00:27:25.196Z,17.70
2019-01-28T00:28:25.197Z,18.50
2019-01-28T00:29:25.204Z,15.30
2019-01-28T00:30:25.185Z,16.70
2019-01-28T00:31:25.163Z,14.40
2019-01-28T00:32:25.144Z,15.90
2019-01-28T00:33:25.142Z,17.10
2019-01-28T00:34:25.144Z,16.10
2019-01-28T00:35:25.120Z,17.50
2019-01-28T00:36:25.112Z,15.90
2019-01-28T00:37:25.120Z,17.20
2019-01-28T00:38:25.079Z,15.80
2019-01-28T00:39:25.097Z,16.40
2019-01-28T00:40:25.063Z,17.10
2019-01-28T00:41:25.054Z,16.90
2019-01-28T00:42:25.055Z,16.80
2019-01-28T00:43:25.054Z,15.90
2019-01-28T00:44:25.013Z,16.50
2019-01-28T00:45:25.011Z,16.00
2019-01-28T00:46:25.005Z,15.40
2019-01-28T00:47:24.979Z,15.80
2019-01-28T00:48:24.980Z,15.70
2019-01-28T00:49:24.970Z,16.50
2019-01-28T00:50:24.986Z,14.50
2019-01-28T00:51:24.948Z,15.90
2019-01-28T00:52:24.926Z,15.20
2019-01-28T00:53:24.923Z,15.80
2019-01-28T00:54:24.911Z,17.10
2019-01-28T00:55:24.913Z,14.60
2019-01-28T00:56:24.898Z,15.70
2019-01-28T00:57:24.874Z,14.90
2019-01-28T00:58:24.857Z,16.60
2019-01-28T00:59:24.872Z,15.70
2019-01-28T01:00:24.875Z,15.70
2019-01-28T01:01:24.840Z,14.30
2019-01-28T01:02:24.832Z,13.70
2019-01-28T01:03:24.819Z,14.20
2019-01-28T01:04:24.803Z,14.60
2019-01-28T01:05:24.828Z,14.50
2019-01-28T01:06:24.802Z,16.10
2019-01-28T01:07:24.769Z,16.20
2019-01-28T01:08:24.768Z,15.60
2019-01-28T01:09:24.793Z,14.90
2019-01-28T01:10:24.763Z,16.70
2019-01-28T01:11:24.757Z,14.90
2019-01-28T01:12:24.735Z,14.40
2019-01-28T01:13:24.724Z,14.80
2019-01-28T01:14:24.698Z,15.90
2019-01-28T01:15:24.705Z,13.90
2019-01-28T01:16:24.681Z,15.70
2019-01-28T01:17:24.658Z,14.50
2019-01-28T01:18:24.649Z,13.90
2019-01-28T01:19:24.647Z,14.50
2019-01-28T01:20:24.655Z,13.90
2019-01-28T01:21:24.622Z,13.10
2019-01-28T01:22:24.617Z,14.20
2019-01-28T01:23:24.594Z,13.30
2019-01-28T01:24:24.596Z,14.30
2019-01-28T01:25:24.599Z,12.80
2019-01-28T01:26:24.569Z,13.30
2019-01-28T01:27:24.553Z,12.50
2019-01-28T01:28:24.545Z,12.90
2019-01-28T01:29:24.527Z,12.70
2019-01-28T01:30:24.555Z,12.90
2019-01-28T01:31:24.521Z,12.80
2019-01-28T01:32:24.515Z,13.70
2019-01-28T01:33:24.500Z,12.60
2019-01-28T01:34:24.484Z,12.30
2019-01-28T01:35:24.511Z,14.30
2019-01-28T01:36:24.469Z,13.70
2019-01-28T01:37:24.451Z,12.70
2019-01-28T01:38:24.443Z,13.20
2019-01-28T01:39:24.419Z,14.80
2019-01-28T01:40:24.437Z,12.80
2019-01-28T01:41:24.403Z,13.00
2019-01-28T01:42:24.399Z,14.20
2019-01-28T01:44:33.591Z,12.30
2019-01-28T01:45:34.596Z,16.30
2019-01-28T01:46:34.553Z,13.20
2019-01-28T01:47:34.541Z,14.20
2019-01-28T01:48:34.538Z,13.50
2019-01-28T01:49:34.518Z,13.00
2019-01-28T01:50:34.537Z,14.80
2019-01-28T01:51:34.517Z,12.80
2019-01-28T01:52:34.480Z,13.50
2019-01-28T01:53:34.482Z,13.00
2019-01-28T01:54:34.456Z,12.40
2019-01-28T01:55:34.472Z,11.80
2019-01-28T01:56:34.451Z,12.30
2019-01-28T01:57:34.429Z,12.60
2019-01-28T01:58:34.425Z,12.90
2019-01-28T01:59:34.418Z,12.80
2019-01-28T02:00:34.418Z,12.30
2019-01-28T02:01:34.396Z,12.70
2019-01-28T02:02:34.371Z,12.10
2019-01-28T02:03:34.368Z,12.40
2019-01-28T02:04:34.358Z,12.60
2019-01-28T02:05:34.369Z,11.70
2019-01-28T02:06:34.361Z,12.90
2019-01-28T02:07:34.340Z,13.80
2019-01-28T02:08:34.308Z,12.40
2019-01-28T02:09:34.303Z,13.20
2019-01-28T02:10:34.305Z,12.70
2019-01-28T02:11:34.289Z,14.30
2019-01-28T02:12:34.278Z,14.40
2019-01-28T02:13:34.266Z,13.60
2019-01-28T02:14:34.248Z,13.10
2019-01-28T02:15:34.273Z,12.40
2019-01-28T02:16:34.238Z,11.90
2019-01-28T02:17:34.219Z,13.40
2019-01-28T02:18:34.214Z,12.60
2019-01-28T02:19:34.205Z,13.70
2019-01-28T02:20:34.201Z,13.30
2019-01-28T02:21:34.191Z,12.40
2019-01-28T02:22:34.163Z,12.60
2019-01-28T02:23:34.155Z,13.10
2019-01-28T02:24:34.147Z,13.10
2019-01-28T02:25:34.158Z,12.80
2019-01-28T02:26:34.115Z,13.00
2019-01-28T02:27:34.119Z,13.00
2019-01-28T02:28:34.103Z,12.50
2019-01-28T02:29:34.095Z,11.90
2019-01-28T02:30:34.125Z,12.70
2019-01-28T02:31:34.074Z,12.20
2019-01-28T02:32:34.055Z,12.30
2019-01-28T02:33:34.049Z,12.30
2019-01-28T02:34:34.068Z,12.70
2019-01-28T02:35:34.018Z,12.30
2019-01-28T02:36:34.018Z,12.50
2019-01-28T02:37:33.999Z,13.20
2019-01-28T02:38:34.000Z,14.40
2019-01-28T02:39:33.996Z,12.80
2019-01-28T02:40:33.980Z,12.40
2019-01-28T02:41:34.004Z,13.40
2019-01-28T02:42:33.970Z,12.60
2019-01-28T02:43:33.947Z,12.40
2019-01-28T02:44:33.926Z,13.40
2019-01-28T02:45:33.921Z,12.20
2019-01-28T02:46:33.928Z,13.30
2019-01-28T02:47:33.899Z,12.90
2019-01-28T02:48:33.880Z,12.50
2019-01-28T02:49:33.872Z,12.50
2019-01-28T02:50:33.865Z,11.90
2019-01-28T02:51:33.873Z,12.60
2019-01-28T02:52:33.846Z,11.80
2019-01-28T02:53:33.839Z,11.60
2019-01-28T02:54:33.818Z,12.10
2019-01-28T02:55:33.812Z,10.90
2019-01-28T02:56:33.826Z,11.60
2019-01-28T02:57:33.793Z,11.40
2019-01-28T02:58:33.783Z,11.20
2019-01-28T02:59:33.777Z,11.30
2019-01-28T03:00:33.748Z,11.20
2019-01-28T03:01:33.769Z,11.40
2019-01-28T03:02:33.742Z,11.00
2019-01-28T03:03:33.722Z,10.90
2019-01-28T03:04:33.706Z,11.00
2019-01-28T03:05:33.701Z,10.70
2019-01-28T03:06:33.713Z,10.00
2019-01-28T03:07:33.707Z,9.60
2019-01-28T03:08:33.675Z,9.90
2019-01-28T03:09:33.666Z,9.50
2019-01-28T03:10:33.648Z,8.60
2019-01-28T03:11:33.658Z,9.30
2019-01-28T03:12:33.635Z,8.30
2019-01-28T03:13:33.617Z,8.10
2019-01-28T03:14:33.603Z,9.10
2019-01-28T03:15:33.598Z,8.40
2019-01-28T03:16:34.346Z,8.20
2019-01-28T03:17:33.576Z,8.40
2019-01-28T03:18:33.563Z,8.00
2019-01-28T03:19:33.554Z,8.00
2019-01-28T03:20:33.539Z,7.60
2019-01-28T03:21:33.552Z,7.10
2019-01-28T03:22:33.546Z,7.50
2019-01-28T03:23:33.518Z,7.80
2019-01-28T03:24:33.490Z,6.90
2019-01-28T03:25:33.487Z,6.80
2019-01-28T03:26:33.481Z,7.10
2019-01-28T03:27:33.480Z,6.80
2019-01-28T03:28:33.457Z,6.50
2019-01-28T03:29:33.454Z,6.40
2019-01-28T03:30:33.442Z,6.60
2019-01-28T03:31:33.431Z,6.30
2019-01-28T03:32:33.444Z,6.30
2019-01-28T03:33:33.415Z,6.00
2019-01-28T03:34:33.394Z,6.20
2019-01-28T03:35:33.398Z,5.60
2019-01-28T03:36:33.369Z,5.60
2019-01-28T03:37:33.386Z,5.60
2019-01-28T03:38:33.357Z,5.40
2019-01-28T03:39:33.341Z,5.30
2019-01-28T03:40:33.347Z,6.00
2019-01-28T03:41:33.318Z,5.40
2019-01-28T03:42:33.331Z,5.90
2019-01-28T03:43:33.316Z,5.80
2019-01-28T03:45:42.487Z,5.20
2019-01-28T03:46:43.467Z,5.40
2019-01-28T03:47:43.477Z,5.40
2019-01-28T03:48:43.453Z,6.00
2019-01-28T03:49:43.437Z,5.90
2019-01-28T03:50:43.418Z,5.20
2019-01-28T03:51:43.419Z,5.40
2019-01-28T03:52:43.422Z,5.60
2019-01-28T03:53:43.397Z,5.00
2019-01-28T03:54:43.375Z,5.50
2019-01-28T03:55:43.385Z,5.70
2019-01-28T03:56:43.356Z,5.80
2019-01-28T03:57:43.370Z,5.20
2019-01-28T03:58:43.351Z,5.70
2019-01-28T03:59:43.335Z,6.10
2019-01-28T04:00:43.316Z,5.30
2019-01-28T04:01:43.309Z,5.60
2019-01-28T04:02:43.326Z,5.80
2019-01-28T04:03:43.291Z,5.70
2019-01-28T04:04:43.270Z,5.50
2019-01-28T04:05:43.268Z,6.10
2019-01-28T04:06:43.258Z,5.20
2019-01-28T04:07:43.271Z,5.40
2019-01-28T04:08:43.231Z,5.80
2019-01-28T04:09:43.224Z,6.00
2019-01-28T04:10:43.241Z,5.20
2019-01-28T04:11:43.196Z,5.20
2019-01-28T04:12:43.204Z,5.30
2019-01-28T04:13:43.194Z,5.90
2019-01-28T04:14:43.176Z,5.10
2019-01-28T04:15:43.197Z,5.50
2019-01-28T04:16:43.147Z,4.10
2019-01-28T04:17:43.157Z,5.40
2019-01-28T04:18:43.134Z,5.00
2019-01-28T04:19:43.116Z,5.20
2019-01-28T04:20:43.106Z,5.10
2019-01-28T04:21:43.086Z,5.40
2019-01-28T04:22:43.101Z,5.60
2019-01-28T04:23:43.073Z,5.60
2019-01-28T04:24:43.051Z,5.00
2019-01-28T04:25:43.044Z,5.40
2019-01-28T04:26:43.105Z,5.20
2019-01-28T04:27:43.016Z,5.30
2019-01-28T04:28:43.017Z,5.10
2019-01-28T04:29:43.009Z,5.10
2019-01-28T04:30:42.981Z,5.00
2019-01-28T04:31:42.984Z,6.60
2019-01-28T04:32:42.963Z,5.30
2019-01-28T04:33:42.982Z,5.30
2019-01-28T04:34:42.953Z,5.70
2019-01-28T04:35:42.932Z,5.80
2019-01-28T04:36:42.933Z,5.40
2019-01-28T04:37:42.916Z,5.60
2019-01-28T04:38:42.922Z,5.00
2019-01-28T04:39:42.902Z,5.30
2019-01-28T04:40:43.723Z,4.50
2019-01-28T04:41:42.879Z,5.20
2019-01-28T04:42:42.851Z,5.00
2019-01-28T04:43:42.882Z,5.20
2019-01-28T04:44:42.901Z,4.40
2019-01-28T04:45:42.834Z,4.50
2019-01-28T04:46:42.817Z,4.30
2019-01-28T04:47:42.836Z,4.60
2019-01-28T04:48:42.920Z,4.50
2019-01-28T04:49:42.784Z,4.20
2019-01-28T04:50:42.765Z,4.70
2019-01-28T04:51:42.779Z,4.90
2019-01-28T04:52:42.751Z,4.90
2019-01-28T04:53:42.769Z,4.60
2019-01-28T04:54:42.729Z,4.10
2019-01-28T04:55:42.721Z,4.60
2019-01-28T04:56:42.710Z,4.70
2019-01-28T04:57:42.717Z,5.30
2019-01-28T04:58:42.696Z,4.60
2019-01-28T04:59:42.707Z,4.70
2019-01-28T05:00:42.663Z,4.50
2019-01-28T05:01:42.651Z,4.90
2019-01-28T05:02:42.651Z,5.30
2019-01-28T05:03:42.660Z,5.40
2019-01-28T05:04:42.682Z,5.10
2019-01-28T05:05:42.621Z,5.10
2019-01-28T05:06:42.599Z,5.80
2019-01-28T05:07:42.583Z,5.20
2019-01-28T05:08:42.579Z,5.00
2019-01-28T05:09:42.592Z,4.90
2019-01-28T05:10:42.568Z,5.20
2019-01-28T05:11:42.539Z,5.30
2019-01-28T05:12:42.529Z,5.20
2019-01-28T05:13:42.522Z,4.40
2019-01-28T05:14:42.543Z,5.00
2019-01-28T05:15:42.501Z,4.90
2019-01-28T05:16:42.490Z,4.40
2019-01-28T05:17:42.484Z,4.60
2019-01-28T05:18:42.459Z,4.80
2019-01-28T05:19:42.478Z,4.30
2019-01-28T05:20:42.446Z,4.70
2019-01-28T05:21:42.427Z,5.30
2019-01-28T05:22:42.422Z,4.20
2019-01-28T05:23:42.416Z,4.50
2019-01-28T05:24:42.422Z,4.00
2019-01-28T05:25:42.392Z,4.00
2019-01-28T05:26:42.380Z,4.20
2019-01-28T05:27:42.383Z,4.80
2019-01-28T05:28:42.349Z,4.60
2019-01-28T05:29:42.363Z,4.80
2019-01-28T05:30:42.346Z,4.50
2019-01-28T05:31:42.344Z,5.00
2019-01-28T05:32:42.316Z,4.70
2019-01-28T05:33:42.298Z,4.40
2019-01-28T05:34:42.313Z,4.70
2019-01-28T05:35:42.278Z,4.50
2019-01-28T05:36:42.277Z,4.80
2019-01-28T05:37:42.266Z,4.70
2019-01-28T05:38:42.249Z,4.40
2019-01-28T05:39:42.250Z,4.40
2019-01-28T05:40:42.233Z,3.90
2019-01-28T05:41:42.213Z,4.60
2019-01-28T05:42:42.211Z,4.30
2019-01-28T05:43:42.200Z,4.30
2019-01-28T05:44:42.205Z,4.50
2019-01-28T05:46:51.373Z,4.30
2019-01-28T05:47:52.353Z,4.60
2019-01-28T05:48:52.339Z,4.30
2019-01-28T05:49:52.367Z,4.80
2019-01-28T05:50:52.328Z,5.20
2019-01-28T05:51:52.319Z,5.30
2019-01-28T05:52:52.310Z,4.90
2019-01-28T05:53:52.298Z,5.00
2019-01-28T05:54:52.295Z,5.30
2019-01-28T05:55:52.285Z,5.30
2019-01-28T05:56:52.254Z,5.60
2019-01-28T05:57:52.265Z,5.30
2019-01-28T05:58:52.240Z,5.90
2019-01-28T05:59:52.247Z,5.00
2019-01-28T06:00:52.222Z,5.40
2019-01-28T06:01:52.209Z,5.40
2019-01-28T06:02:52.193Z,6.00
2019-01-28T06:03:52.197Z,5.40
2019-01-28T06:04:52.193Z,5.40
2019-01-28T06:05:52.173Z,5.70
2019-01-28T06:06:52.155Z,5.70
2019-01-28T06:07:52.149Z,5.70
2019-01-28T06:08:52.137Z,6.00
2019-01-28T06:09:52.139Z,6.00
2019-01-28T06:10:52.111Z,5.90
2019-01-28T06:11:52.104Z,6.10
2019-01-28T06:12:52.096Z,6.10
2019-01-28T06:13:52.082Z,6.00
2019-01-28T06:14:52.085Z,6.00
2019-01-28T06:15:52.051Z,5.40
2019-01-28T06:16:52.054Z,5.50
2019-01-28T06:17:52.038Z,6.00
2019-01-28T06:18:52.032Z,5.70
2019-01-28T06:19:52.024Z,5.50
2019-01-28T06:20:52.003Z,6.00
2019-01-28T06:21:52.009Z,5.90
2019-01-28T06:22:51.989Z,6.10
2019-01-28T06:23:51.974Z,6.00
2019-01-28T06:24:52.087Z,6.40
2019-01-28T06:25:51.964Z,6.40
2019-01-28T06:26:51.936Z,5.80
2019-01-28T06:27:51.929Z,6.60
2019-01-28T06:28:51.919Z,6.50
2019-01-28T06:29:51.910Z,6.80
2019-01-28T06:30:51.933Z,6.70
2019-01-28T06:31:51.893Z,7.50
2019-01-28T06:32:51.879Z,6.50
2019-01-28T06:33:51.861Z,6.80
2019-01-28T06:34:51.848Z,7.10
2019-01-28T06:35:51.866Z,6.90
2019-01-28T06:36:51.832Z,6.70
2019-01-28T06:37:51.819Z,7.30
2019-01-28T06:38:51.836Z,7.70
2019-01-28T06:39:51.808Z,7.40
2019-01-28T06:40:51.820Z,7.80
2019-01-28T06:41:51.792Z,7.60
2019-01-28T06:42:51.791Z,8.20
2019-01-28T06:43:51.755Z,7.80
2019-01-28T06:44:51.776Z,7.90
2019-01-28T06:45:51.762Z,8.30
2019-01-28T06:46:51.795Z,8.40
2019-01-28T06:47:51.738Z,8.70
2019-01-28T06:48:51.714Z,8.00
2019-01-28T06:49:51.777Z,9.10
2019-01-28T06:50:52.651Z,9.20
2019-01-28T06:51:52.259Z,8.70
2019-01-28T06:52:51.825Z,8.40
2019-01-28T06:53:51.684Z,8.90
2019-01-28T06:54:51.695Z,8.70
2019-01-28T06:55:52.656Z,8.80
2019-01-28T06:56:52.133Z,9.80
2019-01-28T06:57:51.674Z,8.60
2019-01-28T06:58:52.118Z,8.70
2019-01-28T06:59:51.677Z,8.30
2019-01-28T07:00:51.675Z,8.60
2019-01-28T07:01:51.624Z,9.00
2019-01-28T07:02:51.555Z,9.40
2019-01-28T07:03:51.562Z,8.10
2019-01-28T07:04:51.538Z,9.50
2019-01-28T07:05:51.531Z,10.20
2019-01-28T07:06:51.647Z,9.00
2019-01-28T07:07:51.522Z,9.40
2019-01-28T07:08:51.496Z,9.50
2019-01-28T07:09:51.495Z,9.70
2019-01-28T07:10:51.499Z,9.90
2019-01-28T07:11:51.507Z,10.20
2019-01-28T07:12:51.481Z,10.40
2019-01-28T07:13:51.446Z,10.50
2019-01-28T07:14:51.429Z,10.60
2019-01-28T07:15:51.411Z,10.60
2019-01-28T07:16:51.441Z,11.50
2019-01-28T07:17:54.957Z,11.60
2019-01-28T07:18:51.471Z,11.30
2019-01-28T07:19:51.381Z,12.10
2019-01-28T07:20:51.366Z,12.20
2019-01-28T07:21:51.387Z,10.60
2019-01-28T07:22:51.432Z,11.00
2019-01-28T07:23:51.328Z,10.60
2019-01-28T07:24:51.330Z,11.10
2019-01-28T07:25:51.316Z,10.50
2019-01-28T07:26:51.327Z,11.50
2019-01-28T07:27:51.309Z,11.50
2019-01-28T07:28:51.315Z,11.80
2019-01-28T07:29:51.271Z,11.10
2019-01-28T07:30:51.279Z,10.60
2019-01-28T07:31:51.546Z,11.10
2019-01-28T07:32:51.242Z,11.10
2019-01-28T07:33:51.237Z,11.70
2019-01-28T07:34:51.214Z,12.20
2019-01-28T07:35:51.209Z,12.10
2019-01-28T07:36:51.264Z,12.40
2019-01-28T07:37:51.205Z,13.10
2019-01-28T07:38:51.211Z,11.90
2019-01-28T07:39:51.160Z,12.30
2019-01-28T07:40:51.166Z,12.10
2019-01-28T07:41:51.188Z,13.20
2019-01-28T07:42:51.160Z,12.00
2019-01-28T07:43:51.150Z,13.00
2019-01-28T07:44:51.096Z,13.50
2019-01-28T07:45:51.087Z,12.80
2019-01-28T07:50:05.811Z,19.90
2019-01-28T07:51:06.765Z,17.10
2019-01-28T07:52:06.747Z,15.30
2019-01-28T07:53:06.754Z,14.50
2019-01-28T07:54:06.737Z,14.80
2019-01-28T07:55:06.836Z,14.60
2019-01-28T07:56:06.739Z,15.20
2019-01-28T07:57:06.703Z,17.00
2019-01-28T07:58:06.714Z,15.70
2019-01-28T07:59:06.724Z,17.50
2019-01-28T08:00:06.698Z,16.40
2019-01-28T08:01:06.709Z,16.40
2019-01-28T08:02:06.681Z,16.40
2019-01-28T08:03:06.654Z,17.10
2019-01-28T08:04:06.720Z,18.50
2019-01-28T08:05:06.652Z,17.50
2019-01-28T08:06:06.777Z,18.00
2019-01-28T08:07:06.595Z,17.30
2019-01-28T08:08:06.595Z,20.40
2019-01-28T08:09:06.581Z,19.10
2019-01-28T08:10:06.610Z,19.40
2019-01-28T08:11:06.575Z,18.60
2019-01-28T08:12:06.536Z,18.90
2019-01-28T08:13:06.519Z,19.70
2019-01-28T08:14:06.523Z,21.10
2019-01-28T08:15:06.523Z,20.00
2019-01-28T08:16:06.519Z,20.00
2019-01-28T08:17:06.496Z,19.50
2019-01-28T08:18:10.900Z,19.60
2019-01-28T08:19:06.469Z,21.00
2019-01-28T08:20:11.423Z,19.20
2019-01-28T08:21:06.630Z,17.70
2019-01-28T08:22:06.431Z,19.10
2019-01-28T08:23:06.443Z,17.30
2019-01-28T08:24:06.413Z,17.80
2019-01-28T08:25:06.411Z,18.10
2019-01-28T08:26:06.612Z,17.30
2019-01-28T08:27:06.455Z,17.00
2019-01-28T08:28:06.384Z,16.80
2019-01-28T08:29:07.393Z,17.60
2019-01-28T08:30:06.456Z,19.90
2019-01-28T08:31:06.344Z,18.60
2019-01-28T08:32:06.325Z,17.00
2019-01-28T08:33:06.337Z,18.20
2019-01-28T08:34:07.337Z,18.50
2019-01-28T08:35:06.346Z,20.30
2019-01-28T08:36:07.527Z,20.00
2019-01-28T08:37:07.697Z,19.40
2019-01-28T08:38:06.293Z,16.90
2019-01-28T08:39:06.278Z,17.70
2019-01-28T08:40:07.177Z,17.10
2019-01-28T08:41:06.349Z,17.40
2019-01-28T08:42:06.446Z,18.20
2019-01-28T08:43:06.383Z,18.30
2019-01-28T08:44:06.201Z,17.00
2019-01-28T08:45:06.216Z,15.80
2019-01-28T08:46:06.499Z,17.60
2019-01-28T08:47:06.335Z,17.30
2019-01-28T08:48:06.180Z,19.20
2019-01-28T08:49:06.159Z,16.20
2019-01-28T08:50:06.174Z,14.60
2019-01-28T08:51:06.140Z,15.00
2019-01-28T08:52:06.132Z,14.80
2019-01-28T08:53:06.090Z,15.60
2019-01-28T08:54:06.097Z,16.20
2019-01-28T08:55:06.097Z,14.90
2019-01-28T08:56:06.060Z,14.30
2019-01-28T08:57:06.067Z,15.40
2019-01-28T08:58:06.048Z,15.30
2019-01-28T08:59:06.057Z,14.90
2019-01-28T09:00:06.221Z,15.70
2019-01-28T09:01:06.003Z,14.10
2019-01-28T09:02:06.018Z,15.20
2019-01-28T09:03:05.985Z,13.60
2019-01-28T09:04:05.978Z,13.70
2019-01-28T09:05:05.994Z,14.50
2019-01-28T09:06:05.994Z,14.60
2019-01-28T09:07:05.944Z,14.20
2019-01-28T09:08:05.930Z,14.30
2019-01-28T09:09:05.940Z,13.70
2019-01-28T09:10:05.965Z,12.90
2019-01-28T09:11:05.936Z,12.90
2019-01-28T09:12:05.888Z,13.50
2019-01-28T09:13:05.895Z,14.50
2019-01-28T09:14:05.883Z,13.60
2019-01-28T09:15:05.858Z,13.30
2019-01-28T09:16:05.903Z,13.20
2019-01-28T09:17:05.843Z,14.00
2019-01-28T09:18:05.845Z,13.10
2019-01-28T09:19:05.830Z,14.20
2019-01-28T09:20:05.792Z,14.20
2019-01-28T09:21:05.823Z,13.90
2019-01-28T09:22:05.788Z,14.20
2019-01-28T09:23:05.781Z,15.10
2019-01-28T09:24:05.773Z,16.00
2019-01-28T09:25:05.747Z,16.00
2019-01-28T09:26:06.663Z,15.10
2019-01-28T09:27:05.734Z,16.70
2019-01-28T09:28:05.735Z,16.90
2019-01-28T09:29:05.726Z,17.20
2019-01-28T09:30:05.696Z,16.00
2019-01-28T09:31:05.695Z,16.20
2019-01-28T09:32:05.680Z,16.40
2019-01-28T09:33:05.707Z,17.70
2019-01-28T09:34:05.650Z,17.60
2019-01-28T09:35:05.680Z,16.50
2019-01-28T09:36:05.698Z,17.30
2019-01-28T09:37:05.617Z,18.20
2019-01-28T09:38:05.610Z,18.50
2019-01-28T09:39:05.838Z,19.20
2019-01-28T09:40:05.584Z,20.30
2019-01-28T09:41:05.676Z,19.20
2019-01-28T09:42:05.578Z,19.70
2019-01-28T09:43:06.065Z,21.20
2019-01-28T09:44:05.695Z,20.30
2019-01-28T09:45:05.516Z,19.10
2019-01-28T09:46:05.539Z,18.80
2019-01-28T09:47:05.530Z,17.80
2019-01-28T09:48:05.482Z,19.20
2019-01-28T09:49:05.484Z,16.90
2019-01-28T09:51:14.713Z,15.70
2019-01-28T09:52:15.660Z,17.30
2019-01-28T09:53:15.646Z,16.70
2019-01-28T09:54:15.640Z,17.00
2019-01-28T09:55:15.637Z,17.10
2019-01-28T09:56:15.635Z,16.70
2019-01-28T09:57:15.595Z,17.90
2019-01-28T09:58:15.593Z,17.30
2019-01-28T09:59:15.586Z,17.30
2019-01-28T10:00:15.572Z,17.40
2019-01-28T10:01:15.575Z,17.00
2019-01-28T10:02:15.553Z,17.90
2019-01-28T10:03:15.554Z,17.40
2019-01-28T10:04:15.549Z,16.50
2019-01-28T10:05:15.514Z,15.40
2019-01-28T10:06:15.513Z,15.90
2019-01-28T10:07:15.526Z,15.30
2019-01-28T10:08:16.444Z,13.60
2019-01-28T10:09:15.474Z,15.70
2019-01-28T10:10:15.467Z,16.00
2019-01-28T10:11:15.485Z,14.60
2019-01-28T10:12:15.449Z,15.00
2019-01-28T10:13:15.432Z,14.60
2019-01-28T10:14:15.427Z,14.80
2019-01-28T10:15:15.426Z,14.50
2019-01-28T10:16:15.412Z,16.60
2019-01-28T10:17:15.534Z,15.30
2019-01-28T10:18:15.455Z,16.00
2019-01-28T10:19:15.354Z,15.30
2019-01-28T10:20:15.357Z,14.80
2019-01-28T10:21:15.354Z,15.00
2019-01-28T10:22:15.408Z,15.70
2019-01-28T10:23:15.351Z,14.20
2019-01-28T10:24:16.337Z,13.50
2019-01-28T10:25:15.295Z,14.50
2019-01-28T10:26:15.303Z,13.20
2019-01-28T10:27:15.284Z,13.50
2019-01-28T10:28:15.288Z,12.60
2019-01-28T10:29:15.436Z,13.60
2019-01-28T10:30:15.281Z,13.70
2019-01-28T10:31:15.286Z,14.20
2019-01-28T10:32:15.405Z,14.70
2019-01-28T10:33:15.240Z,11.90
2019-01-28T10:34:15.226Z,13.20
2019-01-28T10:35:15.260Z,13.10
2019-01-28T10:36:15.178Z,13.30
2019-01-28T10:37:15.506Z,14.90
2019-01-28T10:38:15.277Z,13.20
2019-01-28T10:39:15.164Z,13.10
2019-01-28T10:40:15.170Z,13.80
2019-01-28T10:41:15.116Z,14.60
2019-01-28T10:42:15.200Z,13.50
2019-01-28T10:43:15.124Z,12.10
2019-01-28T10:44:15.142Z,12.70
2019-01-28T10:45:15.619Z,11.30
2019-01-28T10:46:15.431Z,10.40
2019-01-28T10:47:16.370Z,11.00
2019-01-28T10:48:16.145Z,11.70
2019-01-28T10:49:15.091Z,10.20
2019-01-28T10:50:16.327Z,11.70
2019-01-28T10:51:15.119Z,10.40
2019-01-28T10:52:15.282Z,11.20
2019-01-28T10:53:16.923Z,10.30
2019-01-28T10:54:15.095Z,11.70
2019-01-28T10:55:15.292Z,11.40
2019-01-28T10:56:15.014Z,10.90
2019-01-28T10:57:15.876Z,11.20
2019-01-28T10:58:15.066Z,11.10
2019-01-28T10:59:16.163Z,10.60
2019-01-28T11:00:14.952Z,10.30
2019-01-28T11:01:15.025Z,10.60
2019-01-28T11:02:16.541Z,10.90
2019-01-28T11:03:14.898Z,9.70
2019-01-28T11:04:14.933Z,9.30
2019-01-28T11:05:14.879Z,9.60
2019-01-28T11:06:14.922Z,8.30
2019-01-28T11:07:14.932Z,11.20
2019-01-28T11:08:14.885Z,11.50
2019-01-28T11:09:14.933Z,9.50
2019-01-28T11:10:14.922Z,11.60
2019-01-28T11:11:14.914Z,9.40
2019-01-28T11:12:14.823Z,8.60
2019-01-28T11:13:14.949Z,9.30
2019-01-28T11:14:14.873Z,8.50
2019-01-28T11:15:15.124Z,8.80
2019-01-28T11:16:14.977Z,9.00
2019-01-28T11:17:15.878Z,7.60
2019-01-28T11:18:15.095Z,7.60
2019-01-28T11:19:14.768Z,7.70
2019-01-28T11:20:14.845Z,6.90
2019-01-28T11:21:14.839Z,6.30
2019-01-28T11:22:15.005Z,7.20
2019-01-28T11:23:14.806Z,6.80
2019-01-28T11:24:16.008Z,6.60
2019-01-28T11:25:14.660Z,5.90
2019-01-28T11:26:14.737Z,5.70
2019-01-28T11:27:14.780Z,6.00
2019-01-28T11:28:14.773Z,6.70
2019-01-28T11:29:14.699Z,7.50
2019-01-28T11:30:14.732Z,6.50
2019-01-28T11:31:14.618Z,6.20
2019-01-28T11:32:14.575Z,6.60
2019-01-28T11:33:14.666Z,5.30
2019-01-28T11:34:15.064Z,6.80
2019-01-28T11:35:14.536Z,5.90
2019-01-28T11:36:14.672Z,5.60
2019-01-28T11:37:14.855Z,5.70
2019-01-28T11:38:14.669Z,7.40
2019-01-28T11:39:16.533Z,5.60
2019-01-28T11:40:14.727Z,6.80
2019-01-28T11:41:14.477Z,7.40
2019-01-28T11:42:14.629Z,6.10
2019-01-28T11:43:14.774Z,5.00
2019-01-28T11:44:14.853Z,7.10
2019-01-28T11:45:14.752Z,5.80
2019-01-28T11:46:17.933Z,5.90
2019-01-28T11:47:14.407Z,6.60
2019-01-28T11:48:14.762Z,6.00
2019-01-28T11:49:14.635Z,6.40
2019-01-28T11:50:15.779Z,5.60
2019-01-28T11:53:35.853Z,7.50
2019-01-28T11:54:36.368Z,5.80
2019-01-28T11:55:37.067Z,6.10
2019-01-28T11:56:36.120Z,6.80
2019-01-28T11:57:36.337Z,5.90
2019-01-28T11:58:36.112Z,5.90
2019-01-28T11:59:36.120Z,5.90
2019-01-28T12:00:36.088Z,5.90
2019-01-28T12:01:36.910Z,6.00
2019-01-28T12:02:36.084Z,6.30
2019-01-28T12:03:36.042Z,5.80
2019-01-28T12:04:36.477Z,6.60
2019-01-28T12:05:36.008Z,5.20
2019-01-28T12:06:36.035Z,5.60
2019-01-28T12:07:35.978Z,6.40
2019-01-28T12:08:36.029Z,6.70
2019-01-28T12:09:35.956Z,5.60
2019-01-28T12:10:35.943Z,6.10
2019-01-28T12:11:36.943Z,6.30
2019-01-28T12:12:36.028Z,6.60
2019-01-28T12:13:35.922Z,6.10
2019-01-28T12:14:36.988Z,5.90
2019-01-28T12:15:35.886Z,6.00
2019-01-28T12:16:36.037Z,6.70
2019-01-28T12:17:35.887Z,7.00
2019-01-28T12:18:35.869Z,6.20
2019-01-28T12:19:35.887Z,7.00
2019-01-28T12:20:35.916Z,8.00
2019-01-28T12:21:35.850Z,9.20
2019-01-28T12:22:35.805Z,9.80
2019-01-28T12:23:35.807Z,9.10
2019-01-28T12:24:35.797Z,9.10
2019-01-28T12:25:35.796Z,10.60
2019-01-28T12:26:35.845Z,9.30
2019-01-28T12:27:35.788Z,9.10
2019-01-28T12:28:35.767Z,8.60
2019-01-28T12:29:36.225Z,9.20
2019-01-28T12:30:35.741Z,9.60
2019-01-28T12:31:36.858Z,9.50
2019-01-28T12:32:35.724Z,7.90
2019-01-28T12:33:35.710Z,8.90
2019-01-28T12:34:39.770Z,9.10
2019-01-28T12:35:35.697Z,9.80
2019-01-28T12:36:35.686Z,9.40
2019-01-28T12:37:35.649Z,8.70
2019-01-28T12:38:35.633Z,10.90
2019-01-28T12:39:35.637Z,9.80
2019-01-28T12:40:35.649Z,8.30
2019-01-28T12:41:35.645Z,8.90
2019-01-28T12:42:35.594Z,8.70
2019-01-28T12:43:35.598Z,9.50
2019-01-28T12:44:35.574Z,9.70
2019-01-28T12:45:35.573Z,8.80
2019-01-28T12:46:35.592Z,9.80
2019-01-28T12:47:35.544Z,9.20
2019-01-28T12:48:35.535Z,8.50
2019-01-28T12:49:35.565Z,7.30
2019-01-28T12:50:35.539Z,8.60
2019-01-28T12:51:35.580Z,8.20
2019-01-28T12:52:35.503Z,8.00
2019-01-28T12:53:35.552Z,7.80
2019-01-28T12:54:35.466Z,8.00
2019-01-28T12:55:35.470Z,7.30
2019-01-28T12:56:35.454Z,6.80
2019-01-28T12:57:35.430Z,8.20
2019-01-28T12:58:35.416Z,8.10
2019-01-28T12:59:35.411Z,7.50
2019-01-28T13:00:35.425Z,7.50
2019-01-28T13:01:35.436Z,7.20
2019-01-28T13:02:35.433Z,8.40
2019-01-28T13:03:35.985Z,8.70
2019-01-28T13:04:42.035Z,7.80
2019-01-28T13:05:35.392Z,7.30
2019-01-28T13:06:35.565Z,7.60
2019-01-28T13:07:35.365Z,8.20
2019-01-28T13:08:35.335Z,8.70
2019-01-28T13:09:35.318Z,8.50
2019-01-28T13:10:36.452Z,8.10
2019-01-28T13:11:35.318Z,7.20
2019-01-28T13:12:35.906Z,7.70
2019-01-28T13:13:35.262Z,8.00
2019-01-28T13:14:35.259Z,7.70